Time;durP1;ratioP1;P1;durP2;ratioP2;P2;SDS_P1;SDS_P2;PMS_P1;PMS_P2;Temp;Humidity;BMP_temperature;BMP_pressure;BME280_temperature;BME280_humidity;BME280_pressure;Samples;Min_cycle;Max_cycle;Signal;HPM_P1;HPM_P2
2021/01/22 00:00:43;;;;;;;44.43;24.90;;;;;;;1.36;80.94;99205.52;103290;1105;86771;-71
2021/01/22 00:02:48;;;;;;;44.67;24.57;;;;;;;1.50;81.49;99207.58;103287;1105;77918;-72
2021/01/22 00:04:54;;;;;;;41.60;24.70;;;;;;;1.56;81.04;99210.44;103282;1105;64885;-63
2021/01/22 00:07:00;;;;;;;37.23;23.27;;;;;;;1.63;81.46;99211.45;103295;1105;81269;-63
2021/01/22 00:09:06;;;;;;;41.97;23.70;;;;;;;1.68;81.32;99213.61;103265;1106;73002;-72
2021/01/22 00:11:12;;;;;;;43.43;24.40;;;;;;;1.69;81.10;99208.14;103289;1105;84772;-70
2021/01/22 00:13:18;;;;;;;46.20;24.47;;;;;;;1.71;80.87;99206.14;103278;1105;77141;-72
2021/01/22 00:15:24;;;;;;;39.13;22.37;;;;;;;1.65;80.88;99200.63;103266;1105;64917;-70
2021/01/22 00:17:34;;;;;;;42.97;23.20;;;;;;;1.73;80.90;99192.69;103287;1105;82805;-71
2021/01/22 00:19:39;;;;;;;36.93;21.37;;;;;;;1.81;81.22;99194.53;103286;1105;71355;-70
2021/01/22 00:21:45;;;;;;;37.67;21.93;;;;;;;1.84;81.23;99192.34;103268;1106;86116;-71
2021/01/22 00:23:51;;;;;;;37.60;21.25;;;;;;;1.82;81.16;99188.19;103311;1105;79074;-61
2021/01/22 00:25:56;;;;;;;41.10;22.30;;;;;;;1.78;80.91;99193.87;103321;1105;64953;-62
2021/01/22 00:28:03;;;;;;;38.40;21.53;;;;;;;1.81;80.97;99186.55;103279;1105;83386;-60
2021/01/22 00:30:15;;;;;;;39.07;22.97;;;;;;;1.77;80.88;99189.52;103334;1105;72279;-62
2021/01/22 00:32:20;;;;;;;37.30;21.70;;;;;;;1.71;80.95;99178.69;103314;1105;84437;-61
2021/01/22 00:34:26;;;;;;;39.30;22.93;;;;;;;1.63;81.08;99182.17;103296;1105;77453;-61
2021/01/22 00:36:53;;;;;;;36.43;20.70;;;;;;;1.62;81.04;99177.02;103291;1105;64841;-61
2021/01/22 00:39:18;;;;;;;39.87;22.90;;;;;;;1.59;81.04;99175.48;103284;1105;83495;-70
2021/01/22 00:41:42;;;;;;;36.33;20.97;;;;;;;1.60;80.95;99171.00;103289;1105;71826;-71
2021/01/22 00:44:08;;;;;;;35.93;21.50;;;;;;;1.58;81.09;99173.00;103293;1105;86579;-61
2021/01/22 00:46:32;;;;;;;36.50;20.83;;;;;;;1.52;81.07;99166.50;103240;1105;79644;-62
2021/01/22 00:48:56;;;;;;;43.43;22.03;;;;;;;1.50;80.88;99171.16;103277;1105;64668;-71
2021/01/22 00:51:21;;;;;;;36.63;21.90;;;;;;;1.51;81.00;99167.48;103283;1105;83823;-70
2021/01/22 00:53:46;;;;;;;37.03;21.00;;;;;;;1.55;80.84;99168.84;103312;1105;72761;-62
2021/01/22 00:56:10;;;;;;;37.10;21.80;;;;;;;1.56;81.20;99159.88;103269;1105;85952;-61
2021/01/22 00:58:17;;;;;;;38.40;22.23;;;;;;;1.56;81.21;99157.21;103231;1105;79272;-60
2021/01/22 01:00:24;;;;;;;38.30;21.20;;;;;;;1.57;81.47;99155.36;103261;1105;64885;-61
2021/01/22 01:02:30;;;;;;;39.27;21.47;;;;;;;1.59;81.09;99156.05;103271;1105;81233;-62
2021/01/22 01:04:36;;;;;;;38.17;22.07;;;;;;;1.61;81.31;99146.06;103258;1105;71621;-62
2021/01/22 01:06:42;;;;;;;37.63;21.87;;;;;;;1.66;81.59;99149.91;103302;1105;84723;-62
2021/01/22 01:08:48;;;;;;;37.43;21.73;;;;;;;1.74;81.48;99151.74;103184;1105;78336;-68
2021/01/22 01:10:54;;;;;;;36.87;21.93;;;;;;;1.80;81.42;99151.09;103241;1105;64774;-69
2021/01/22 01:13:02;;;;;;;37.00;21.40;;;;;;;1.79;81.27;99149.41;103266;1105;81999;-69
2021/01/22 01:15:12;;;;;;;38.57;22.20;;;;;;;1.78;81.26;99161.08;103204;1105;72124;-68
2021/01/22 01:17:17;;;;;;;40.50;22.90;;;;;;;1.78;81.34;99156.59;103266;1105;84300;-69
2021/01/22 01:19:23;;;;;;;37.13;22.33;;;;;;;1.79;81.38;99155.58;103226;1106;78224;-62
2021/01/22 01:21:29;;;;;;;36.00;21.33;;;;;;;1.82;81.47;99150.91;103248;1106;64985;-60
2021/01/22 01:23:35;;;;;;;38.30;23.37;;;;;;;1.83;81.15;99144.60;103268;1106;83356;-62
2021/01/22 01:25:41;;;;;;;41.50;23.83;;;;;;;1.85;81.21;99148.77;103301;1105;72218;-61
2021/01/22 01:27:47;;;;;;;44.70;23.83;;;;;;;1.94;81.47;99146.95;103163;1105;86563;-60
2021/01/22 01:29:52;;;;;;;41.37;23.50;;;;;;;1.97;81.47;99138.63;103233;1105;78903;-62
2021/01/22 01:31:58;;;;;;;40.30;22.90;;;;;;;1.98;81.30;99133.13;103107;1106;64674;-61
2021/01/22 01:34:04;;;;;;;36.77;22.97;;;;;;;1.98;81.13;99132.31;103156;1105;83029;-61
2021/01/22 01:36:11;;;;;;;38.63;23.40;;;;;;;1.95;81.06;99137.97;103282;1105;72254;-61
2021/01/22 01:38:17;;;;;;;39.00;23.77;;;;;;;1.90;81.29;99133.13;103283;1105;84632;-61
2021/01/22 01:40:23;;;;;;;43.47;23.87;;;;;;;1.87;81.38;99138.77;103293;1105;79148;-70
2021/01/22 01:42:29;;;;;;;42.03;23.77;;;;;;;1.84;81.02;99131.11;103294;1105;64805;-69
2021/01/22 01:44:37;;;;;;;39.17;23.93;;;;;;;1.82;81.18;99132.28;103274;1105;83879;-70
2021/01/22 01:46:43;;;;;;;41.20;24.40;;;;;;;1.81;81.11;99134.13;103262;1106;73160;-70
2021/01/22 01:48:50;;;;;;;42.37;23.00;;;;;;;1.83;81.54;99129.47;103319;1105;86139;-62
2021/01/22 01:50:55;;;;;;;44.73;25.30;;;;;;;1.82;81.43;99129.62;103278;1105;78326;-63
2021/01/22 01:53:02;;;;;;;42.60;23.60;;;;;;;1.86;81.36;99129.14;103289;1105;64953;-61
2021/01/22 01:55:11;;;;;;;43.10;23.93;;;;;;;1.88;81.43;99135.13;103277;1105;82320;-70
2021/01/22 01:57:17;;;;;;;43.93;25.53;;;;;;;1.88;81.42;99132.46;103282;1105;71723;-73
2021/01/22 01:59:23;;;;;;;41.67;24.40;;;;;;;1.92;81.06;99119.66;103291;1105;86040;-59
2021/01/22 02:01:29;;;;;;;43.27;25.43;;;;;;;1.91;81.23;99124.15;103265;1105;79427;-60
2021/01/22 02:03:35;;;;;;;43.67;25.97;;;;;;;1.88;81.58;99120.97;103287;1105;65014;-68
2021/01/22 02:05:41;;;;;;;45.57;26.37;;;;;;;1.94;81.15;99120.32;103278;1105;83184;-69
2021/01/22 02:07:47;;;;;;;44.87;26.07;;;;;;;1.92;81.12;99107.19;103279;1105;73048;-70
2021/01/22 02:09:53;;;;;;;43.57;25.70;;;;;;;1.93;81.56;99107.99;103283;1105;85457;-60
2021/01/22 02:12:00;;;;;;;43.43;24.57;;;;;;;1.92;81.10;99112.52;103272;1105;79120;-62
2021/01/22 02:14:06;;;;;;;40.83;24.93;;;;;;;1.97;81.50;99106.67;103314;1105;65327;-70
2021/01/22 02:16:13;;;;;;;45.13;26.30;;;;;;;1.97;81.26;99109.34;103300;1105;81621;-71
2021/01/22 02:18:19;;;;;;;42.93;25.00;;;;;;;2.00;81.36;99098.36;103286;1105;70867;-71
2021/01/22 02:20:38;;;;;;;46.37;26.87;;;;;;;2.04;81.26;99102.34;103282;1105;84935;-71
2021/01/22 02:22:44;;;;;;;43.80;25.87;;;;;;;2.04;81.59;99105.83;103262;1105;78779;-72
2021/01/22 02:24:51;;;;;;;44.97;26.03;;;;;;;2.09;81.24;99106.16;103283;1105;64966;-70
2021/01/22 02:27:02;;;;;;;48.63;27.47;;;;;;;2.14;81.20;99092.36;103263;1105;82047;-73
2021/01/22 02:29:11;;;;;;;43.40;26.43;;;;;;;2.15;81.50;99086.02;103304;1106;72205;-59
2021/01/22 02:31:17;;;;;;;42.20;26.57;;;;;;;2.17;81.24;99092.84;103264;1105;86241;-62
2021/01/22 02:33:24;;;;;;;45.73;25.80;;;;;;;2.19;81.04;99082.87;103257;1105;80012;-60
2021/01/22 02:35:30;;;;;;;45.25;26.60;;;;;;;2.24;81.33;99085.85;103278;1106;64821;-69
2021/01/22 02:37:42;;;;;;;44.33;27.00;;;;;;;2.26;81.17;99091.00;103275;1105;81404;-71
2021/01/22 02:39:52;;;;;;;45.03;26.13;;;;;;;2.29;80.86;99088.00;103287;1105;72185;-71
2021/01/22 02:42:00;;;;;;;46.47;26.80;;;;;;;2.34;80.98;99091.82;103326;1105;84353;-69
2021/01/22 02:44:09;;;;;;;44.87;26.07;;;;;;;2.35;80.76;99087.33;103311;1106;78014;-71
2021/01/22 02:46:15;;;;;;;44.80;25.90;;;;;;;2.36;80.91;99091.67;103274;1106;64779;-70
2021/01/22 02:48:21;;;;;;;43.57;27.17;;;;;;;2.36;80.88;99089.81;103285;1105;82785;-70
2021/01/22 02:50:34;;;;;;;48.20;25.70;;;;;;;2.32;80.71;99085.00;103284;1105;73611;-70
2021/01/22 02:52:40;;;;;;;46.28;26.82;;;;;;;2.31;80.44;99078.00;103302;1105;84009;-69
2021/01/22 02:54:48;;;;;;;45.80;26.23;;;;;;;2.30;80.91;99082.52;103256;1105;79279;-63
2021/01/22 02:57:24;;;;;;;42.70;27.37;;;;;;;2.31;80.90;99080.66;103234;1106;64866;-63
2021/01/22 02:59:48;;;;;;;46.17;26.77;;;;;;;2.32;80.40;99077.01;103226;1105;82425;-71
2021/01/22 03:02:06;;;;;;;44.63;26.77;;;;;;;2.32;80.35;99077.01;103269;1105;72108;-69
2021/01/22 03:04:15;;;;;;;42.97;26.10;;;;;;;2.29;80.64;99072.85;103306;1105;84742;-64
2021/01/22 03:06:28;;;;;;;45.40;25.97;;;;;;;2.28;80.41;99065.84;103283;1105;79210;-63
2021/01/22 03:08:37;;;;;;;47.20;27.00;;;;;;;2.29;80.64;99066.69;103273;1105;64971;-63
2021/01/22 03:10:47;;;;;;;45.67;26.23;;;;;;;2.26;80.41;99061.69;103293;1105;81717;-63
2021/01/22 03:12:56;;;;;;;44.43;26.63;;;;;;;2.18;80.43;99053.72;103263;1105;73033;-65
2021/01/22 03:15:04;;;;;;;45.63;27.07;;;;;;;2.15;80.52;99054.05;103331;1105;84512;-64
2021/01/22 03:17:11;;;;;;;47.83;25.43;;;;;;;2.05;80.28;99045.42;103249;1105;78496;-64
2021/01/22 03:19:17;;;;;;;49.00;27.50;;;;;;;2.01;80.36;99046.73;103264;1105;64843;-64
2021/01/22 03:21:23;;;;;;;45.50;27.13;;;;;;;2.02;80.24;99051.08;103278;1105;82491;-63
2021/01/22 03:23:38;;;;;;;51.33;28.70;;;;;;;2.01;80.40;99044.08;103277;1105;71376;-65
2021/01/22 03:25:44;;;;;;;47.07;27.73;;;;;;;2.01;80.52;99041.41;103296;1105;86372;-64
2021/01/22 03:27:49;;;;;;;48.90;28.03;;;;;;;2.02;80.74;99029.77;103299;1105;77666;-65
2021/01/22 03:29:58;;;;;;;45.60;27.20;;;;;;;2.02;80.59;99030.61;103353;1105;64841;-71
2021/01/22 03:32:06;;;;;;;39.20;22.70;;;;;;;1.97;80.66;99024.96;103294;1105;82460;-71
2021/01/22 03:34:11;;;;;;;49.97;27.90;;;;;;;1.98;80.49;99028.46;103343;1104;71472;-69
2021/01/22 03:36:17;;;;;;;42.83;26.20;;;;;;;2.01;80.59;99030.76;103302;1105;84978;-71
2021/01/22 03:38:23;;;;;;;46.27;25.87;;;;;;;2.05;80.87;99032.10;103236;1106;78790;-70
2021/01/22 03:40:29;;;;;;;43.33;26.43;;;;;;;2.08;80.82;99021.95;103320;1105;65318;-64
2021/01/22 03:42:37;;;;;;;45.57;26.00;;;;;;;2.12;80.60;99027.75;103319;1105;83087;-63
2021/01/22 03:44:44;;;;;;;43.37;26.50;;;;;;;2.09;80.53;99028.08;103318;1105;73947;-65
2021/01/22 03:46:50;;;;;;;45.33;25.50;;;;;;;2.09;80.80;99033.41;103265;1106;86090;-64
2021/01/22 03:48:55;;;;;;;44.37;26.93;;;;;;;2.09;80.48;99031.59;103327;1105;77614;-70
2021/01/22 03:51:05;;;;;;;48.63;27.87;;;;;;;2.12;80.47;99033.91;103311;1105;64923;-71
2021/01/22 03:53:11;;;;;;;42.00;25.50;;;;;;;2.09;80.51;99028.08;103280;1105;81651;-70
2021/01/22 03:55:18;;;;;;;41.87;25.70;;;;;;;2.12;80.33;99019.75;103299;1105;72355;-62
2021/01/22 03:57:23;;;;;;;40.20;25.00;;;;;;;2.10;80.48;99019.10;103350;1106;84199;-63
2021/01/22 03:59:29;;;;;;;44.37;26.17;;;;;;;2.09;80.51;99012.94;103290;1105;79202;-62
2021/01/22 04:01:35;;;;;;;45.67;26.13;;;;;;;2.09;80.57;99012.10;103372;1105;64864;-63
2021/01/22 04:03:41;;;;;;;43.47;26.43;;;;;;;2.09;80.09;99006.77;103321;1105;82183;-69
2021/01/22 04:05:47;;;;;;;40.17;24.90;;;;;;;2.09;80.34;99007.61;103341;1105;71830;-70
2021/01/22 04:07:52;;;;;;;37.67;24.30;;;;;;;2.07;80.51;99003.45;103344;1105;83807;-70
2021/01/22 04:09:58;;;;;;;39.80;24.17;;;;;;;2.04;80.15;99007.30;103269;1105;78217;-63
2021/01/22 04:12:05;;;;;;;41.93;25.30;;;;;;;2.07;80.26;99000.80;103328;1105;64791;-63
2021/01/22 04:14:11;;;;;;;36.33;22.57;;;;;;;2.07;80.53;99003.45;103360;1105;81655;-71
2021/01/22 04:16:17;;;;;;;40.53;24.60;;;;;;;2.09;80.47;98996.95;103298;1105;73541;-71
2021/01/22 04:18:29;;;;;;;42.27;24.77;;;;;;;2.11;80.18;98994.98;103303;1104;85421;-69
2021/01/22 04:20:34;;;;;;;39.93;23.97;;;;;;;2.14;80.59;98999.13;103292;1104;79115;-63
2021/01/22 04:22:40;;;;;;;39.40;24.33;;;;;;;2.15;80.41;99006.94;103364;1106;64809;-64
2021/01/22 04:24:45;;;;;;;41.10;24.63;;;;;;;2.17;80.36;98998.80;103275;1105;82391;-70
2021/01/22 04:26:51;;;;;;;43.43;25.27;;;;;;;2.14;80.35;98988.48;103283;1105;73262;-71
2021/01/22 04:28:57;;;;;;;37.40;23.33;;;;;;;2.15;80.42;98979.47;103344;1105;85515;-64
2021/01/22 04:31:03;;;;;;;38.33;22.53;;;;;;;2.15;79.97;98984.80;103248;1105;79879;-64
2021/01/22 04:33:10;;;;;;;35.07;21.90;;;;;;;2.12;80.34;98980.64;103228;1105;64830;-65
2021/01/22 04:35:16;;;;;;;35.70;22.23;;;;;;;2.12;80.36;98985.97;103253;1105;83595;-64
2021/01/22 04:37:25;;;;;;;33.57;21.90;;;;;;;2.14;80.17;98967.17;103314;1105;72204;-65
2021/01/22 04:39:35;;;;;;;34.63;21.53;;;;;;;2.11;80.33;98965.68;103272;1106;86315;-73
2021/01/22 04:41:40;;;;;;;36.27;20.70;;;;;;;2.08;80.12;98959.86;103262;1106;78008;-72
2021/01/22 04:43:46;;;;;;;36.43;20.17;;;;;;;2.02;79.91;98955.20;103275;1105;64802;-70
2021/01/22 04:45:52;;;;;;;38.47;20.97;;;;;;;1.97;80.21;98949.56;103267;1105;82535;-71
2021/01/22 04:48:00;;;;;;;35.40;22.07;;;;;;;1.92;80.01;98957.23;103295;1105;72728;-71
2021/01/22 04:50:08;;;;;;;37.20;20.70;;;;;;;1.90;80.18;98960.05;103317;1105;86546;-71
2021/01/22 04:52:14;;;;;;;36.03;22.10;;;;;;;1.87;79.99;98960.39;103285;1105;78708;-71
2021/01/22 04:54:29;;;;;;;36.07;22.30;;;;;;;1.86;79.91;98958.74;103259;1105;64834;-71
2021/01/22 04:56:43;;;;;;;37.50;22.23;;;;;;;1.83;80.48;98958.24;103271;1106;82633;-70
2021/01/22 04:58:55;;;;;;;40.50;20.50;;;;;;;1.81;80.48;98953.10;103305;1105;73076;-62
2021/01/22 05:01:01;;;;;;;34.93;21.90;;;;;;;1.79;80.32;98953.25;103313;1105;85092;-62
2021/01/22 05:03:09;;;;;;;35.37;21.80;;;;;;;1.75;80.05;98949.28;103250;1106;78555;-63
2021/01/22 05:05:18;;;;;;;35.27;21.20;;;;;;;1.73;80.33;98951.26;103353;1105;64873;-62
2021/01/22 05:07:25;;;;;;;35.60;20.50;;;;;;;1.70;80.41;98954.25;103289;1105;82398;-63
2021/01/22 05:09:31;;;;;;;33.50;19.83;;;;;;;1.65;80.42;98953.94;103286;1105;74678;-63
2021/01/22 05:11:36;;;;;;;33.20;20.70;;;;;;;1.60;80.10;98953.61;103295;1105;85962;-63
2021/01/22 05:13:42;;;;;;;36.23;21.77;;;;;;;1.57;80.20;98966.41;103285;1105;77593;-62
2021/01/22 05:16:13;;;;;;;36.73;21.07;;;;;;;1.58;80.04;98962.77;103273;1105;64824;-62
2021/01/22 05:18:19;;;;;;;35.53;21.87;;;;;;;1.54;80.23;98972.09;103269;1105;82176;-63
2021/01/22 05:20:37;;;;;;;35.30;21.53;;;;;;;1.45;80.18;98957.96;103257;1105;71413;-62
2021/01/22 05:22:42;;;;;;;36.33;21.37;;;;;;;1.42;80.31;98960.11;103297;1105;85860;-64
2021/01/22 05:24:48;;;;;;;40.10;22.23;;;;;;;1.33;80.30;98956.62;103303;1105;79284;-64
2021/01/22 05:27:12;;;;;;;47.60;26.27;;;;;;;1.28;80.34;98958.95;103302;1105;64905;-65
2021/01/22 05:29:18;;;;;;;41.10;23.57;;;;;;;1.15;80.36;98955.95;103350;1105;81979;-70
2021/01/22 05:31:32;;;;;;;57.25;29.15;;;;;;;1.06;80.26;98956.93;103278;1105;72736;-70
2021/01/22 05:33:39;;;;;;;54.80;28.55;;;;;;;1.04;80.26;98962.40;103294;1105;84148;-63
2021/01/22 05:35:45;;;;;;;63.67;31.23;;;;;;;1.04;80.68;98961.59;103292;1106;77878;-62
2021/01/22 05:37:54;;;;;;;76.80;34.63;;;;;;;1.02;80.73;98958.24;103289;1106;64783;-62
2021/01/22 05:40:14;;;;;;;79.53;37.10;;;;;;;1.04;80.67;98956.27;103301;1106;83263;-70
2021/01/22 05:42:20;;;;;;;48.63;26.53;;;;;;;1.07;80.80;98950.63;103320;1105;71546;-70
2021/01/22 05:44:27;;;;;;;36.73;21.97;;;;;;;1.09;80.70;98953.95;103270;1105;86055;-62
2021/01/22 05:46:33;;;;;;;32.63;19.20;;;;;;;1.21;81.14;98944.63;103237;1105;79727;-62
2021/01/22 05:48:39;;;;;;;32.15;18.90;;;;;;;1.26;81.03;98937.02;103326;1105;65269;-63
2021/01/22 05:50:51;;;;;;;33.90;20.57;;;;;;;1.29;80.70;98939.34;103269;1105;83360;-61
2021/01/22 05:53:13;;;;;;;33.00;19.13;;;;;;;1.29;81.19;98934.02;103277;1105;72558;-63
2021/01/22 05:55:24;;;;;;;31.60;19.00;;;;;;;1.33;81.12;98940.66;103238;1105;85772;-61
2021/01/22 05:57:40;;;;;;;34.50;19.73;;;;;;;1.44;81.46;98942.98;103257;1104;79548;-64
2021/01/22 05:59:46;;;;;;;28.90;18.53;;;;;;;1.49;81.35;98934.48;103291;1106;64617;-73
2021/01/22 06:01:55;;;;;;;32.33;19.17;;;;;;;1.48;81.13;98943.48;103282;1106;83076;-72
2021/01/22 06:04:10;;;;;;;30.73;18.53;;;;;;;1.48;81.29;98939.00;103306;1105;71818;-63
2021/01/22 06:06:18;;;;;;;29.40;18.00;;;;;;;1.51;81.06;98943.96;103306;1105;84658;-63
2021/01/22 06:08:25;;;;;;;30.45;18.50;;;;;;;1.56;80.95;98948.80;103284;1105;78509;-63
2021/01/22 06:10:33;;;;;;;32.03;18.80;;;;;;;1.57;81.37;98955.77;103250;1106;64669;-64
2021/01/22 06:12:40;;;;;;;30.27;18.37;;;;;;;1.60;81.10;98968.73;103259;1105;83665;-63
2021/01/22 06:14:46;;;;;;;33.87;18.37;;;;;;;1.62;81.42;98962.25;103300;1105;72336;-72
2021/01/22 06:16:56;;;;;;;32.77;19.40;;;;;;;1.66;81.42;98958.27;103258;1105;85883;-72
2021/01/22 06:19:03;;;;;;;28.33;18.27;;;;;;;1.69;81.16;98954.44;103290;1106;78291;-72
2021/01/22 06:21:21;;;;;;;30.80;18.10;;;;;;;1.75;81.37;98953.77;103316;1105;64889;-72
2021/01/22 06:23:31;;;;;;;30.93;18.07;;;;;;;1.77;81.11;98954.42;103268;1105;82255;-72
2021/01/22 06:25:37;;;;;;;31.67;17.73;;;;;;;1.77;81.15;98960.58;103401;1105;71824;-73
2021/01/22 06:27:45;;;;;;;29.20;17.17;;;;;;;1.79;80.94;98947.93;103338;1106;83964;-72
2021/01/22 06:29:52;;;;;;;30.13;18.37;;;;;;;1.80;80.91;98940.78;103236;1106;78644;-62
2021/01/22 06:31:59;;;;;;;30.85;18.05;;;;;;;1.77;81.17;98933.97;103276;1105;65014;-62
2021/01/22 06:34:06;;;;;;;27.83;17.53;;;;;;;1.80;80.88;98932.79;103276;1105;82773;-63
2021/01/22 06:36:13;;;;;;;28.10;16.80;;;;;;;1.85;81.04;98929.61;103279;1105;71246;-62
2021/01/22 06:38:23;;;;;;;27.03;17.57;;;;;;;1.92;80.88;98936.77;103281;1106;85431;-63
2021/01/22 06:40:29;;;;;;;27.50;16.20;;;;;;;1.93;81.07;98934.91;103326;1105;77973;-63
2021/01/22 06:42:41;;;;;;;30.33;16.33;;;;;;;1.94;81.23;98936.59;103268;1106;64834;-63
2021/01/22 06:44:46;;;;;;;24.47;16.30;;;;;;;1.94;81.37;98931.27;103286;1105;83891;-73
2021/01/22 06:46:55;;;;;;;27.10;16.53;;;;;;;1.96;81.33;98939.91;103287;1105;72370;-73
2021/01/22 06:49:06;;;;;;;28.30;16.97;;;;;;;1.99;81.26;98935.08;103250;1106;85847;-72
2021/01/22 06:51:18;;;;;;;24.23;16.73;;;;;;;2.04;80.99;98946.04;103311;1104;77526;-71
2021/01/22 06:53:24;;;;;;;26.40;16.07;;;;;;;2.10;81.00;98944.53;103317;1105;64962;-73
2021/01/22 06:55:33;;;;;;;24.30;15.97;;;;;;;2.08;80.99;98946.54;103330;1106;83584;-71
2021/01/22 06:57:38;;;;;;;27.57;16.20;;;;;;;2.12;81.38;98940.69;103316;1106;72338;-72
2021/01/22 06:59:44;;;;;;;28.63;17.00;;;;;;;2.17;81.38;98941.00;103291;1105;83767;-62
2021/01/22 07:01:50;;;;;;;26.70;15.93;;;;;;;2.24;80.77;98941.98;103256;1106;80050;-62
2021/01/22 07:03:56;;;;;;;22.53;14.43;;;;;;;2.28;80.83;98942.48;103279;1105;64838;-64
2021/01/22 07:06:03;;;;;;;25.23;15.13;;;;;;;2.36;81.06;98929.13;103274;1105;83402;-63
2021/01/22 07:08:08;;;;;;;24.83;15.23;;;;;;;2.43;80.88;98932.75;103197;1106;71888;-62
2021/01/22 07:10:14;;;;;;;29.43;15.50;;;;;;;2.49;80.81;98923.23;103154;1105;84653;-62
2021/01/22 07:12:41;;;;;;;20.93;13.90;;;;;;;2.57;81.22;98923.19;103220;1105;77686;-63
2021/01/22 07:14:48;;;;;;;22.17;14.33;;;;;;;2.65;80.67;98915.98;103226;1105;64780;-62
2021/01/22 07:16:56;;;;;;;24.93;14.27;;;;;;;2.74;80.49;98914.94;103291;1105;82811;-63
2021/01/22 07:19:04;;;;;;;22.50;13.73;;;;;;;2.80;80.78;98914.20;103300;1105;72609;-62
2021/01/22 07:21:37;;;;;;;25.53;14.70;;;;;;;2.89;80.93;98909.66;103299;1105;85943;-63
2021/01/22 07:23:46;;;;;;;21.00;13.95;;;;;;;2.94;80.26;98905.45;103323;1105;79327;-63
2021/01/22 07:25:58;;;;;;;25.77;14.57;;;;;;;2.95;80.50;98907.12;103343;1105;64864;-63
2021/01/22 07:28:23;;;;;;;23.97;13.80;;;;;;;3.01;80.47;98907.41;103298;1105;81684;-62
2021/01/22 07:30:41;;;;;;;22.70;14.43;;;;;;;3.07;80.79;98896.04;103338;1105;71514;-72
2021/01/22 07:32:50;;;;;;;22.30;14.60;;;;;;;3.12;80.16;98890.99;103290;1106;85304;-72
2021/01/22 07:34:55;;;;;;;21.73;12.83;;;;;;;3.20;80.14;98890.92;103326;1105;77740;-74
2021/01/22 07:37:01;;;;;;;21.45;13.75;;;;;;;3.26;80.46;98880.37;103312;1105;64998;-72
2021/01/22 07:39:07;;;;;;;24.67;14.43;;;;;;;3.33;79.80;98875.96;103321;1105;83742;-64
2021/01/22 07:41:13;;;;;;;20.03;12.60;;;;;;;3.39;80.13;98871.73;103293;1105;72461;-62
2021/01/22 07:43:20;;;;;;;22.00;12.77;;;;;;;3.47;80.25;98879.67;103295;1105;86551;-64
2021/01/22 07:45:31;;;;;;;20.63;12.27;;;;;;;3.56;79.48;98881.27;103343;1105;77772;-73
2021/01/22 07:47:41;;;;;;;19.57;12.73;;;;;;;3.66;79.92;98879.14;103305;1105;64838;-73
2021/01/22 07:49:59;;;;;;;23.27;12.83;;;;;;;3.72;79.88;98867.74;103301;1105;82086;-68
2021/01/22 07:52:07;;;;;;;22.20;12.53;;;;;;;3.95;79.86;98873.84;103337;1105;72780;-63
2021/01/22 07:54:12;;;;;;;21.37;13.37;;;;;;;4.12;79.06;98867.27;103301;1106;85462;-72
2021/01/22 07:56:18;;;;;;;21.37;13.67;;;;;;;4.22;79.19;98861.65;103225;1106;77919;-72
2021/01/22 07:58:24;;;;;;;22.00;13.67;;;;;;;4.25;78.96;98863.13;103301;1106;64824;-73
2021/01/22 08:00:39;;;;;;;21.03;12.40;;;;;;;4.28;78.11;98857.41;103282;1105;82169;-63
2021/01/22 08:02:58;;;;;;;21.70;13.37;;;;;;;4.43;78.53;98856.34;103307;1105;71826;-64
2021/01/22 08:05:08;;;;;;;20.30;12.90;;;;;;;4.83;79.00;98854.95;103312;1105;85332;-73
2021/01/22 08:07:14;;;;;;;22.27;13.00;;;;;;;5.36;78.07;98851.72;103260;1106;78305;-73
2021/01/22 08:09:20;;;;;;;20.43;12.80;;;;;;;6.02;78.01;98854.86;103275;1106;65070;-63
2021/01/22 08:11:27;;;;;;;19.40;13.43;;;;;;;6.43;77.37;98849.48;103261;1105;83376;-71
2021/01/22 08:13:45;;;;;;;19.40;12.50;;;;;;;6.61;76.53;98839.04;103322;1105;71098;-75
2021/01/22 08:16:06;;;;;;;19.33;13.47;;;;;;;6.49;75.69;98841.47;103302;1105;84817;-65
2021/01/22 08:18:13;;;;;;;19.37;12.60;;;;;;;6.33;75.56;98838.31;103280;1105;79163;-69
2021/01/22 08:20:22;;;;;;;23.60;13.73;;;;;;;6.24;74.23;98834.97;103356;1105;65068;-70
2021/01/22 08:22:27;;;;;;;20.10;13.47;;;;;;;6.02;74.84;98836.10;103316;1104;82873;-69
2021/01/22 08:24:34;;;;;;;21.17;14.13;;;;;;;5.89;74.82;98836.88;103260;1105;72559;-68
2021/01/22 08:26:41;;;;;;;18.57;12.83;;;;;;;5.83;74.50;98829.59;103304;1105;85451;-69
2021/01/22 08:28:51;;;;;;;19.30;12.13;;;;;;;5.75;75.21;98831.59;103288;1105;79087;-59
2021/01/22 08:30:58;;;;;;;22.40;14.23;;;;;;;5.77;74.93;98832.21;103980;1105;64975;-60
2021/01/22 08:33:08;;;;;;;22.37;13.63;;;;;;;5.78;75.15;98833.88;103147;1105;83481;-62
2021/01/22 08:35:17;;;;;;;21.53;12.97;;;;;;;5.81;74.87;98828.13;103649;1105;71466;-76
2021/01/22 08:37:30;;;;;;;18.93;12.90;;;;;;;5.85;74.12;98819.52;103306;1105;84372;-75
2021/01/22 08:39:59;;;;;;;19.63;12.70;;;;;;;5.78;74.45;98825.84;103286;1105;77291;-59
2021/01/22 08:42:14;;;;;;;18.70;12.13;;;;;;;5.84;74.16;98822.38;103299;1106;64997;-64
2021/01/22 08:44:20;;;;;;;17.63;12.23;;;;;;;5.87;75.05;98819.34;103212;1105;81453;-59
2021/01/22 08:46:26;;;;;;;21.83;13.63;;;;;;;5.83;74.55;98815.36;103218;1105;73275;-62
2021/01/22 08:48:32;;;;;;;20.23;12.27;;;;;;;5.74;75.03;98811.20;103314;1106;85357;-62
2021/01/22 08:50:39;;;;;;;19.97;13.43;;;;;;;5.71;74.18;98809.72;103304;1105;79260;-59
2021/01/22 08:52:45;;;;;;;18.50;13.00;;;;;;;5.67;74.82;98813.83;103286;1106;64923;-61
2021/01/22 08:54:54;;;;;;;20.03;13.20;;;;;;;5.68;74.59;98806.63;103260;1105;82792;-61
2021/01/22 08:57:16;;;;;;;18.50;12.50;;;;;;;5.70;74.52;98807.25;103268;1105;73090;-61
2021/01/22 08:59:22;;;;;;;19.45;12.30;;;;;;;5.82;74.17;98801.12;103249;1105;84257;-61
2021/01/22 09:01:53;;;;;;;19.23;11.97;;;;;;;5.81;74.29;98802.17;103239;1105;80013;-61
2021/01/22 09:04:18;;;;;;;18.70;12.43;;;;;;;6.14;73.14;98806.88;103346;1105;64840;-61
2021/01/22 09:06:51;;;;;;;23.37;12.60;;;;;;;6.81;74.19;98802.32;103265;1105;82632;-61
2021/01/22 09:08:57;;;;;;;19.27;12.47;;;;;;;8.07;74.32;98809.25;103291;1105;71559;-60
2021/01/22 09:11:03;;;;;;;19.10;12.43;;;;;;;8.97;71.75;98795.56;103266;1104;85331;-61
2021/01/22 09:13:17;;;;;;;18.47;11.80;;;;;;;9.80;71.81;98790.69;103256;1106;79787;-63
2021/01/22 09:15:23;;;;;;;18.50;12.37;;;;;;;10.44;69.05;98784.74;103233;1106;64841;-62
2021/01/22 09:17:37;;;;;;;15.20;11.00;;;;;;;10.55;66.82;98781.27;103234;1105;84271;-63
2021/01/22 09:19:59;;;;;;;17.67;11.03;;;;;;;10.10;67.49;98778.10;103307;1105;73641;-73
2021/01/22 09:22:05;;;;;;;16.33;12.47;;;;;;;9.84;67.76;98784.61;103328;1105;84408;-77
2021/01/22 09:24:11;;;;;;;19.70;12.07;;;;;;;9.46;67.43;98786.66;103268;1105;77697;-64
2021/01/22 09:26:17;;;;;;;15.33;11.17;;;;;;;9.27;68.01;98772.31;103280;1105;64662;-60
2021/01/22 09:28:23;;;;;;;17.67;11.90;;;;;;;9.15;66.88;98778.62;103285;1105;84445;-59
2021/01/22 09:30:29;;;;;;;16.83;11.50;;;;;;;8.90;66.56;98765.97;103294;1105;72469;-61
2021/01/22 09:32:35;;;;;;;16.67;12.67;;;;;;;9.00;67.25;98776.27;103145;1105;85247;-59
2021/01/22 09:34:41;;;;;;;16.83;12.47;;;;;;;9.58;67.82;98770.58;103198;1105;79776;-60
2021/01/22 09:36:47;;;;;;;14.07;10.80;;;;;;;9.76;67.96;98771.42;103219;1105;64831;-59
2021/01/22 09:38:53;;;;;;;16.90;12.00;;;;;;;10.25;67.58;98769.62;103241;1105;82545;-75
2021/01/22 09:40:59;;;;;;;16.63;11.47;;;;;;;10.11;65.41;98760.05;103323;1105;73041;-78
2021/01/22 09:43:05;;;;;;;16.63;11.83;;;;;;;10.29;65.12;98762.74;103283;1105;84353;-75
2021/01/22 09:45:16;;;;;;;15.43;11.43;;;;;;;10.74;65.99;98750.46;103352;1105;78009;-62
2021/01/22 09:47:22;;;;;;;16.20;11.53;;;;;;;10.75;65.43;98753.99;103331;1105;64844;-61
2021/01/22 09:49:28;;;;;;;18.07;11.80;;;;;;;10.45;64.82;98743.20;103327;1105;83139;-75
2021/01/22 09:51:36;;;;;;;16.45;12.20;;;;;;;10.17;62.65;98754.58;103298;1105;71315;-75
2021/01/22 09:53:42;;;;;;;18.33;12.60;;;;;;;10.25;64.30;98743.47;103299;1105;85498;-75